Airfield :
LOGIN :

Register | Disclaimer

   EN    FR    IT 

 










Legend :    VFR   Marginal VFR   IFR   Intensive IFR   Very Intensive IFR
Visi :
Ceiling :
>= 8 km
>= 3000ft
5 to 8 km
1000 to 3000 ft
1500m to 5 km
500 to 1000 ft
800 to 1500m
200 to 500 ft
< 800m
< 200 ft
Symbols :   Thunderstorms  Fog  Heavy snow  Heavy precipitations  Wind > 20 kt
SIGMETs :     Misc.  Thunderstorms  Icing  Turbulence  Mountain Waves  Volcanic Ashes






- Airport Elevation : 1017 ft


LFSL - Brive Souillac

CURRENT METAR :
  • 231600Z AUTO 23004KT 180V290 9999 -RA FEW049/// SCT094/// ///CB 16/11 Q1018 TEMPO 24015G25KT 3000 SHRA BKN010 FEW020CB BKN025TCU

EXPIRED METARs :
  • 231530Z AUTO 21004KT 170V250 9999 ///CB 16/10 Q1018 TEMPO 24015G25KT 3000 SHRA BKN010 FEW020CB BKN025TCU
  • 231500Z AUTO 19003KT 130V230 9999 //////CB 17/10 Q1018 TEMPO 24015G25KT 3000 SHRA BKN010 FEW020CB BKN025TCU
  • 231430Z AUTO 24004KT 170V290 9999 ///CB 17/09 Q1018 TEMPO 24015G25KT 2000 SHRA BKN010 FEW020CB BKN025TCU
  • 231400Z AUTO 26003KT 170V320 9999 FEW024/// BKN070/// BKN082/// ///CB 17/09 Q1018 TEMPO 24015G25KT 2000 SHRA BKN010 FEW020CB BKN025TCU
  • 231330Z AUTO 28004KT 230V360 9999 BKN024/// BKN033/// BKN043/// ///CB 17/11 Q1018 TEMPO 24015G25KT 2000 SHRA BKN010 FEW020CB BKN025TCU
  • 231300Z AUTO 35005KT 300V030 9999 SCT027/// BKN034/// BKN043/// ///CB 16/10 Q1018 TEMPO 24015G25KT 2000 SHRA BKN010 FEW020CB BKN025TCU
  • 231230Z AUTO 19004KT 150V260 9999 FEW026/// SCT040/// BKN072/// //////TCU 16/11 Q1018 TEMPO 24015G25KT 2000 SHRA SCT025CB
  • 231200Z AUTO 19004KT 140V270 9999 BKN020/// BKN030/// BKN036/// ///TCU 16/10 Q1019 TEMPO 24015G25KT 2000 SHRA SCT025CB
  • 231130Z AUTO 16006KT 110V200 9999 BKN021/// BKN034/// BKN052/// ///TCU 16/11 Q1019 TEMPO 24015G25KT 1500 SHRA SCT025CB
  • 231100Z AUTO 20004KT 110V260 9999 BKN013/// BKN022/// BKN076/// ///CB 15/11 Q1019 TEMPO 24015G25KT 1500 SHRA

TAF TAF LFSL
Valid from the 23 at 15:00 until the 24 at 00:00 UTC


231400Z 2315/2324 27005KT 9999 SCT030
TEMPO 2315/2321 3000 SHRA BKN010 FEW020CB BKN025TCU
PROB30
TEMPO 2316/2318 24015G25KT -TSRA SCT025CB
PROB30
TEMPO 2322/2324 3000 BR



MET'MAP, your aeronautical weather chart ! - Copyright ORBIFLY December 2007 - Disclaimer

ORBIFLY MET'MAP TEAM :

Programming & Development : Alexandra Zaïnal
Original concept : Baudouin d'Aumeries
Technical & hardware support : Manuel Goepfert
Assistance : Marc-Olivier Méhu




SOURCES & CREDITS :

   NOAA